Portland, OR (97205)

8:15 PM PST on December 10, 2016 (GMT -0800)
Southwest Portland | | Change Station

Elev 0 ft 45.52 °N, 122.68 °W | Updated 37 seconds ago

Overcast
Overcast
45.7 °F
Feels Like 46 °F
N
1.2
Wind Variable Wind from East
Gusts 5.6 mph

Today
High -- | Low -- °F
--% Chance of Precip.
Yesterday
High -- | Low -- °F
Precip. -- in
Pressure 29.99 in
Visibility 8.0 miles
Clouds Mostly Cloudy 3900 ft
Mostly Cloudy 7000 ft
Windchill 46 °F
Dew Point 40 °F
Humidity 81%
Rainfall Not available.
Snow Depth Not available.
7:40 AM 4:27 PM
Waxing Gibbous, 88% visible
METAR KPDX 110353Z 20010KT 8SM -RA BKN039 BKN070 07/06 A2999 RMK AO2 RAE00B39 SLP155 P0001 T00670056 $
Pressure 29.99 in
Visibility 8.0 miles
Clouds Mostly Cloudy 3900 ft
Mostly Cloudy 7000 ft
Windchill 46 °F
Dew Point 40 °F
Humidity 81%
Rainfall Not available.
Snow Depth Not available.
7:40 AM 4:27 PM
Waxing Gibbous, 88% visible
METAR KPDX 110353Z 20010KT 8SM -RA BKN039 BKN070 07/06 A2999 RMK AO2 RAE00B39 SLP155 P0001 T00670056 $

10-Day Weather Forecast

Almanac

Astronomy

Dec. 10, 2016 Rise Set
Actual Time
Civil Twilight
Nautical Twilight
Astronomical Twilight
Moon
Length of Visible Light
Length of Day
Tomorrow will be .
, % of the Moon is Illuminated

Today's Extremes

State Highs State Lows

Community

WunderPhotos

Upload Photos

1,956,704 photos uploaded!

WunderBlog® & News

Nearby

Air Quality

  Air Quality AQ Index Pollutant
Not available.

Snow Depth

Station Depth Elevation

Earthquake Activity

City Distance Mag. Time & Date
Minimum magnitude displayed is 2.5.

Coastal Water Temperatures

Place Temperature

Stations

Nearby Weather Stations

Station Location Temp. Windchill Dew Point Humidity Wind Precip. Elev Updated Type
                   

Watches & Warnings

There are currently no watches in effect.